createdAt,value
2023-04-20T00:02:08.969Z,2.10
2023-04-20T00:04:39.024Z,2.00
2023-04-20T00:07:11.002Z,2.10
2023-04-20T00:09:40.742Z,2.25
2023-04-20T00:12:12.965Z,2.00
2023-04-20T00:14:44.061Z,2.10
2023-04-20T00:17:14.224Z,2.00
2023-04-20T00:19:48.701Z,1.98
2023-04-20T00:22:21.004Z,1.90
2023-04-20T00:24:51.028Z,2.05
2023-04-20T00:27:20.406Z,1.60
2023-04-20T00:29:52.633Z,2.00
2023-04-20T00:32:22.970Z,1.80
2023-04-20T00:34:52.091Z,2.03
2023-04-20T00:37:22.095Z,2.00
2023-04-20T00:39:51.610Z,2.03
2023-04-20T00:42:20.614Z,2.47
2023-04-20T00:44:51.383Z,2.00
2023-04-20T00:47:20.548Z,2.10
2023-04-20T00:49:50.668Z,2.20
2023-04-20T00:52:22.041Z,1.73
2023-04-20T00:54:52.474Z,2.05
2023-04-20T00:57:26.285Z,2.30
2023-04-20T00:59:56.287Z,2.20
2023-04-20T01:02:26.595Z,2.10
2023-04-20T01:04:57.401Z,2.00
2023-04-20T01:07:34.166Z,2.40
2023-04-20T01:10:04.910Z,2.20
2023-04-20T01:12:36.336Z,2.30
2023-04-20T01:15:08.899Z,2.17
2023-04-20T01:17:42.550Z,2.20
2023-04-20T01:20:16.067Z,2.20
2023-04-20T01:22:51.946Z,2.40
2023-04-20T01:25:21.312Z,2.10
2023-04-20T01:27:50.510Z,2.17
2023-04-20T01:30:19.972Z,2.28
2023-04-20T01:32:49.142Z,2.22
2023-04-20T01:35:18.601Z,2.53
2023-04-20T01:37:48.790Z,2.22
2023-04-20T01:40:18.835Z,2.20
2023-04-20T01:42:50.182Z,2.25
2023-04-20T01:45:20.297Z,2.30
2023-04-20T01:47:50.509Z,2.47
2023-04-20T01:50:22.241Z,2.30
2023-04-20T01:52:55.337Z,2.30
2023-04-20T01:55:25.035Z,2.17
2023-04-20T01:57:58.333Z,2.20
2023-04-20T02:00:30.275Z,2.40
2023-04-20T02:03:03.344Z,2.28
2023-04-20T02:05:33.909Z,2.30
2023-04-20T02:08:03.434Z,2.28
2023-04-20T02:10:35.101Z,2.15
2023-04-20T02:13:04.477Z,2.38
2023-04-20T02:15:34.322Z,2.10
2023-04-20T02:18:04.228Z,2.22
2023-04-20T02:20:34.497Z,2.33
2023-04-20T02:23:03.926Z,2.40
2023-04-20T02:25:34.556Z,2.53
2023-04-20T02:28:04.125Z,2.25
2023-04-20T02:30:34.456Z,2.58
2023-04-20T02:33:04.697Z,2.40
2023-04-20T02:35:35.225Z,2.30
2023-04-20T02:38:06.044Z,2.30
2023-04-20T02:40:35.538Z,3.05
2023-04-20T02:43:07.631Z,2.50
2023-04-20T02:45:39.803Z,2.45
2023-04-20T02:48:10.154Z,2.40
2023-04-20T02:50:45.195Z,2.50
2023-04-20T02:53:22.598Z,2.40
2023-04-20T02:56:15.630Z,2.40
2023-04-20T02:58:49.259Z,2.55
2023-04-20T03:01:24.457Z,2.60
2023-04-20T03:04:04.139Z,2.58
2023-04-20T03:06:38.998Z,2.50
2023-04-20T03:09:11.294Z,2.17
2023-04-20T03:12:05.936Z,2.30
2023-04-20T03:15:08.762Z,2.25
2023-04-20T03:18:01.183Z,2.60
2023-04-20T03:20:34.709Z,2.22
2023-04-20T03:23:04.251Z,2.30
2023-04-20T03:25:34.757Z,2.20
2023-04-20T03:28:15.330Z,2.53
2023-04-20T03:30:45.088Z,2.35
2023-04-20T03:33:20.572Z,2.25
2023-04-20T03:35:50.183Z,2.05
2023-04-20T03:38:20.186Z,2.17
2023-04-20T03:40:50.504Z,2.20
2023-04-20T03:43:20.723Z,2.00
2023-04-20T03:45:51.487Z,2.17
2023-04-20T03:48:23.532Z,2.13
2023-04-20T03:50:54.969Z,2.28
2023-04-20T03:53:24.185Z,2.00
2023-04-20T03:55:54.663Z,2.10
2023-04-20T03:58:26.616Z,2.10
2023-04-20T04:01:14.083Z,2.60
2023-04-20T04:03:48.340Z,2.28
2023-04-20T04:06:19.353Z,2.17
2023-04-20T04:08:52.406Z,2.65
2023-04-20T04:11:23.267Z,2.50
2023-04-20T04:13:54.832Z,2.28
2023-04-20T04:16:32.672Z,2.33
2023-04-20T04:19:04.524Z,2.30
2023-04-20T04:21:36.503Z,2.30
2023-04-20T04:24:08.122Z,2.50
2023-04-20T04:26:47.441Z,2.30
2023-04-20T04:29:16.887Z,2.05
2023-04-20T04:31:46.617Z,2.50
2023-04-20T04:34:19.816Z,2.35
2023-04-20T04:37:50.064Z,2.30
2023-04-20T04:40:47.439Z,2.00
2023-04-20T04:43:16.704Z,2.13
2023-04-20T04:45:54.379Z,2.28
2023-04-20T04:48:24.512Z,2.40
2023-04-20T04:50:54.375Z,2.40
2023-04-20T04:53:23.564Z,2.25
2023-04-20T04:55:52.139Z,2.20
2023-04-20T04:58:22.345Z,2.15
2023-04-20T05:00:52.552Z,2.25
2023-04-20T05:03:22.494Z,2.17
2023-04-20T05:05:52.080Z,2.85
2023-04-20T05:08:22.666Z,2.70
2023-04-20T05:10:52.254Z,2.40
2023-04-20T05:13:22.613Z,2.33
2023-04-20T05:15:51.723Z,2.20
2023-04-20T05:18:22.642Z,2.55
2023-04-20T05:20:54.297Z,2.25
2023-04-20T05:23:24.958Z,2.45
2023-04-20T05:25:55.177Z,2.53
2023-04-20T05:28:24.203Z,2.30
2023-04-20T05:30:55.865Z,2.35
2023-04-20T05:33:26.913Z,2.25
2023-04-20T05:36:03.266Z,2.50
2023-04-20T05:38:32.567Z,2.10
2023-04-20T05:41:02.710Z,2.40
2023-04-20T05:43:36.516Z,2.40
2023-04-20T05:46:07.973Z,2.10
2023-04-20T05:48:38.885Z,2.17
2023-04-20T05:51:09.586Z,2.50
2023-04-20T05:53:39.858Z,2.25
2023-04-20T05:56:09.951Z,2.40
2023-04-20T05:58:40.208Z,2.38
2023-04-20T06:01:10.391Z,2.10
2023-04-20T06:03:42.079Z,2.40
2023-04-20T06:06:11.379Z,2.30
2023-04-20T06:08:41.003Z,2.20
2023-04-20T06:11:10.271Z,2.42
2023-04-20T06:13:40.556Z,2.13
2023-04-20T06:16:11.425Z,2.10
2023-04-20T06:18:42.448Z,2.03
2023-04-20T06:21:12.215Z,2.47
2023-04-20T06:23:42.595Z,2.38
2023-04-20T06:26:12.005Z,2.20
2023-04-20T06:28:41.963Z,2.30
2023-04-20T06:31:11.182Z,2.33
2023-04-20T06:33:42.327Z,2.42
2023-04-20T06:36:11.590Z,2.40
2023-04-20T06:38:42.097Z,2.53
2023-04-20T06:41:11.636Z,2.20
2023-04-20T06:43:43.120Z,2.40
2023-04-20T06:46:12.141Z,2.20
2023-04-20T06:48:42.090Z,2.20
2023-04-20T06:51:11.616Z,2.30
2023-04-20T06:53:42.734Z,2.10
2023-04-20T06:56:12.675Z,2.25
2023-04-20T06:58:42.524Z,2.40
2023-04-20T07:01:12.401Z,2.30
2023-04-20T07:03:42.900Z,2.30
2023-04-20T07:06:12.267Z,2.22
2023-04-20T07:08:42.674Z,2.30
2023-04-20T07:11:14.846Z,2.40
2023-04-20T07:13:43.976Z,2.05
2023-04-20T07:16:16.136Z,2.30
2023-04-20T07:18:45.197Z,2.20
2023-04-20T07:21:19.844Z,2.30
2023-04-20T07:23:50.604Z,2.20
2023-04-20T07:26:20.633Z,2.40
2023-04-20T07:28:51.892Z,2.20
2023-04-20T07:31:20.521Z,2.30
2023-04-20T07:33:50.199Z,2.30
2023-04-20T07:36:23.518Z,2.30
2023-04-20T07:38:52.529Z,2.30
2023-04-20T07:41:23.681Z,2.03
2023-04-20T07:43:52.522Z,2.30
2023-04-20T07:46:23.819Z,2.28
2023-04-20T07:48:54.086Z,2.40
2023-04-20T07:51:23.443Z,2.22
2023-04-20T07:53:52.476Z,2.30
2023-04-20T07:56:22.372Z,2.25
2023-04-20T07:59:02.697Z,2.28
2023-04-20T08:01:32.168Z,2.15
2023-04-20T08:04:03.006Z,2.60
2023-04-20T08:06:34.209Z,2.50
2023-04-20T08:09:04.433Z,2.10
2023-04-20T08:11:35.102Z,2.40
2023-04-20T08:14:04.789Z,2.22
2023-04-20T08:16:34.868Z,2.25
2023-04-20T08:19:11.561Z,2.47
2023-04-20T08:21:52.414Z,2.30
2023-04-20T08:24:23.062Z,2.40
2023-04-20T08:26:52.372Z,2.08
2023-04-20T08:29:21.132Z,2.22
2023-04-20T08:31:51.975Z,2.22
2023-04-20T08:34:22.331Z,2.35
2023-04-20T08:36:52.487Z,2.05
2023-04-20T08:39:24.602Z,2.67
2023-04-20T08:41:56.330Z,2.25
2023-04-20T08:44:30.826Z,2.30
2023-04-20T08:47:04.069Z,2.40
2023-04-20T08:49:34.481Z,2.50
2023-04-20T08:52:03.779Z,2.15
2023-04-20T08:54:33.850Z,2.08
2023-04-20T08:57:06.751Z,2.40
2023-04-20T08:59:39.305Z,2.55
2023-04-20T09:02:16.073Z,2.60
2023-04-20T09:04:44.991Z,2.00
2023-04-20T09:07:24.273Z,2.20
2023-04-20T09:10:02.516Z,2.40
2023-04-20T09:12:43.675Z,2.70
2023-04-20T09:15:12.814Z,2.30
2023-04-20T09:17:43.359Z,2.33
2023-04-20T09:20:12.436Z,2.08
2023-04-20T09:22:42.425Z,2.40
2023-04-20T09:25:19.155Z,2.33
2023-04-20T09:28:03.276Z,2.30
2023-04-20T09:30:40.418Z,2.30
2023-04-20T09:33:12.086Z,2.38
2023-04-20T09:35:42.729Z,2.42
2023-04-20T09:38:15.958Z,2.28
2023-04-20T09:40:44.499Z,2.45
2023-04-20T09:43:20.789Z,2.20
2023-04-20T09:45:51.710Z,2.50
2023-04-20T09:48:22.688Z,2.25
2023-04-20T09:50:52.039Z,2.35
2023-04-20T09:53:22.459Z,2.40
2023-04-20T09:55:52.825Z,2.15
2023-04-20T09:58:22.528Z,2.40
2023-04-20T10:00:52.467Z,2.30
2023-04-20T10:03:22.832Z,2.40
2023-04-20T10:05:56.815Z,2.22
2023-04-20T10:08:31.326Z,2.40
2023-04-20T10:11:02.067Z,2.38
2023-04-20T10:13:36.249Z,2.47
2023-04-20T10:16:06.862Z,3.47
2023-04-20T10:18:38.236Z,2.47
2023-04-20T10:21:11.983Z,2.35
2023-04-20T10:23:54.662Z,2.20
2023-04-20T10:26:24.570Z,2.67
2023-04-20T10:28:54.789Z,2.53
2023-04-20T10:34:08.603Z,2.20
2023-04-20T10:36:41.414Z,2.22
2023-04-20T10:39:19.759Z,2.45
2023-04-20T10:42:04.507Z,2.70
2023-04-20T10:44:35.947Z,2.42
2023-04-20T10:47:04.698Z,2.30
2023-04-20T10:49:35.413Z,2.30
2023-04-20T10:52:04.699Z,2.35
2023-04-20T10:54:42.274Z,2.30
2023-04-20T10:57:17.917Z,2.58
2023-04-20T10:59:47.891Z,2.80
2023-04-20T11:02:17.004Z,2.50
2023-04-20T11:04:48.149Z,2.40
2023-04-20T11:07:18.423Z,2.58
2023-04-20T11:09:54.805Z,2.30
2023-04-20T11:12:23.749Z,2.60
2023-04-20T11:14:56.198Z,2.50
2023-04-20T11:17:36.487Z,2.55
2023-04-20T11:20:17.129Z,2.30
2023-04-20T11:23:00.511Z,2.28
2023-04-20T11:25:31.405Z,2.40
2023-04-20T11:28:10.510Z,2.42
2023-04-20T11:30:42.664Z,2.60
2023-04-20T11:33:12.800Z,2.35
2023-04-20T11:35:44.426Z,2.80
2023-04-20T11:38:15.679Z,2.13
2023-04-20T11:40:47.191Z,2.60
2023-04-20T11:43:19.852Z,2.63
2023-04-20T11:48:20.375Z,2.25
2023-04-20T11:50:50.377Z,2.30
2023-04-20T11:53:19.510Z,2.75
2023-04-20T11:55:50.557Z,2.75
2023-04-20T11:58:20.857Z,3.10
2023-04-20T12:00:50.564Z,3.05
2023-04-20T12:03:20.000Z,2.90
2023-04-20T12:05:51.544Z,2.80
2023-04-20T12:08:21.096Z,3.20
2023-04-20T12:10:50.682Z,2.90
2023-04-20T12:13:20.030Z,3.05
2023-04-20T12:15:49.121Z,3.60
2023-04-20T12:18:19.410Z,3.47
2023-04-20T12:20:51.719Z,3.70
2023-04-20T12:23:21.211Z,3.78
2023-04-20T12:25:51.515Z,3.75
2023-04-20T12:28:20.397Z,3.67
2023-04-20T12:30:50.690Z,4.10
2023-04-20T12:33:20.407Z,4.07
2023-04-20T12:35:50.473Z,4.15
2023-04-20T12:38:20.690Z,4.18
2023-04-20T12:40:51.124Z,4.03
2023-04-20T12:43:20.560Z,4.18
2023-04-20T12:45:52.798Z,4.20
2023-04-20T12:48:22.977Z,3.85
2023-04-20T12:50:52.604Z,4.32
2023-04-20T12:53:23.048Z,4.60
2023-04-20T12:56:00.263Z,4.22
2023-04-20T12:58:32.661Z,4.18
2023-04-20T13:01:02.826Z,4.40
2023-04-20T13:03:33.540Z,4.30
2023-04-20T13:06:03.168Z,4.40
2023-04-20T13:08:32.643Z,4.10
2023-04-20T13:11:02.498Z,4.25
2023-04-20T13:13:32.693Z,3.83
2023-04-20T13:16:02.363Z,4.18
2023-04-20T13:18:32.544Z,3.90
2023-04-20T13:21:07.209Z,3.83
2023-04-20T13:23:39.609Z,3.95
2023-04-20T13:26:11.326Z,4.07
2023-04-20T13:28:40.885Z,3.83
2023-04-20T13:31:11.828Z,4.32
2023-04-20T13:33:42.090Z,3.70
2023-04-20T13:36:11.012Z,3.97
2023-04-20T13:38:40.980Z,3.63
2023-04-20T13:41:12.626Z,3.53
2023-04-20T13:43:43.899Z,4.03
2023-04-20T13:46:13.119Z,3.58
2023-04-20T13:48:42.758Z,3.65
2023-04-20T13:51:12.223Z,3.50
2023-04-20T13:53:44.249Z,3.38
2023-04-20T13:56:17.105Z,3.60
2023-04-20T13:58:48.574Z,3.28
2023-04-20T14:01:22.657Z,3.35
2023-04-20T14:03:56.075Z,3.40
2023-04-20T14:06:27.529Z,3.47
2023-04-20T14:08:58.273Z,3.40
2023-04-20T14:11:30.561Z,3.40
2023-04-20T14:14:32.239Z,3.50
2023-04-20T14:17:04.478Z,3.63
2023-04-20T14:19:57.148Z,4.13
2023-04-20T14:22:36.215Z,3.47
2023-04-20T14:25:07.380Z,3.53
2023-04-20T14:27:41.283Z,3.30
2023-04-20T14:30:13.457Z,3.53
2023-04-20T14:33:00.039Z,3.50
2023-04-20T14:35:32.369Z,3.20
2023-04-20T14:38:02.610Z,3.22
2023-04-20T14:40:32.832Z,3.40
2023-04-20T14:43:04.978Z,2.90
2023-04-20T14:45:37.855Z,3.33
2023-04-20T14:48:10.477Z,2.85
2023-04-20T14:50:43.619Z,3.33
2023-04-20T14:53:12.932Z,2.90
2023-04-20T14:55:47.208Z,2.75
2023-04-20T14:58:26.076Z,3.10
2023-04-20T15:01:02.306Z,2.55
2023-04-20T15:03:33.353Z,2.90
2023-04-20T15:06:04.878Z,2.63
2023-04-20T15:08:35.877Z,2.72
2023-04-20T15:11:09.308Z,2.92
2023-04-20T15:13:45.362Z,2.75
2023-04-20T15:16:20.014Z,2.95
2023-04-20T15:19:02.705Z,2.72
2023-04-20T15:21:43.405Z,2.97
2023-04-20T15:24:15.433Z,2.80
2023-04-20T15:26:45.073Z,2.75
2023-04-20T15:29:16.215Z,2.67
2023-04-20T15:31:50.823Z,2.65
2023-04-20T15:34:20.208Z,2.72
2023-04-20T15:36:53.835Z,2.97
2023-04-20T15:39:26.803Z,2.75
2023-04-20T15:41:56.767Z,2.58
2023-04-20T15:44:31.294Z,2.95
2023-04-20T15:47:02.925Z,2.40
2023-04-20T15:49:32.604Z,2.78
2023-04-20T15:52:06.734Z,2.70
2023-04-20T15:54:39.174Z,2.42
2023-04-20T15:57:12.336Z,2.47
2023-04-20T15:59:42.526Z,2.90
2023-04-20T16:02:12.305Z,2.88
2023-04-20T16:04:43.650Z,2.60
2023-04-20T16:07:15.935Z,2.60
2023-04-20T16:09:47.294Z,2.58
2023-04-20T16:12:18.533Z,2.60
2023-04-20T16:14:49.470Z,2.47
2023-04-20T16:17:20.955Z,2.63
2023-04-20T16:19:55.492Z,2.60
2023-04-20T16:22:27.403Z,2.25
2023-04-20T16:25:01.607Z,2.50
2023-04-20T16:27:32.809Z,2.70
2023-04-20T16:30:10.909Z,2.60
2023-04-20T16:32:41.752Z,2.40
2023-04-20T16:35:12.699Z,2.65
2023-04-20T16:37:47.459Z,2.55
2023-04-20T16:40:17.246Z,2.58
2023-04-20T16:42:53.270Z,2.53
2023-04-20T16:45:27.801Z,2.25
2023-04-20T16:48:12.649Z,2.65
2023-04-20T16:51:20.916Z,2.38
2023-04-20T16:54:08.021Z,2.20
2023-04-20T16:56:41.279Z,2.63
2023-04-20T16:59:14.641Z,2.60
2023-04-20T17:01:49.074Z,2.70
2023-04-20T17:04:21.020Z,2.42
2023-04-20T17:06:53.164Z,2.47
2023-04-20T17:09:27.515Z,2.30
2023-04-20T17:12:07.865Z,2.40
2023-04-20T17:14:39.524Z,2.15
2023-04-20T17:17:09.268Z,2.40
2023-04-20T17:19:42.696Z,2.40
2023-04-20T17:22:12.571Z,2.58
2023-04-20T17:24:44.119Z,2.42
2023-04-20T17:27:17.151Z,2.40
2023-04-20T17:29:51.591Z,2.33
2023-04-20T17:32:21.547Z,2.70
2023-04-20T17:34:54.997Z,2.60
2023-04-20T17:37:27.432Z,2.45
2023-04-20T17:40:03.503Z,2.40
2023-04-20T17:42:37.179Z,2.60
2023-04-20T17:45:09.374Z,2.40
2023-04-20T17:47:43.934Z,2.78
2023-04-20T17:50:17.043Z,2.60
2023-04-20T17:52:51.410Z,2.50
2023-04-20T17:56:15.908Z,2.45
2023-04-20T18:00:39.964Z,2.47
2023-04-20T18:03:27.811Z,2.50
2023-04-20T18:06:08.955Z,2.45
2023-04-20T18:08:51.813Z,2.65
2023-04-20T18:16:05.913Z,2.38
2023-04-20T18:19:25.582Z,2.55
2023-04-20T18:22:52.350Z,2.50
2023-04-20T18:29:48.661Z,2.72
2023-04-20T18:34:01.905Z,2.30
2023-04-20T18:37:59.241Z,2.33
2023-04-20T18:45:19.283Z,2.05
2023-04-20T18:47:49.345Z,2.60
2023-04-20T18:50:21.131Z,2.40
2023-04-20T18:57:36.139Z,2.40
2023-04-20T19:00:09.083Z,2.38
2023-04-20T19:05:52.955Z,2.13
2023-04-20T19:08:34.929Z,2.20
2023-04-20T19:11:04.720Z,2.40
2023-04-20T19:13:34.829Z,2.08
2023-04-20T19:16:06.970Z,2.30
2023-04-20T19:18:36.923Z,2.40
2023-04-20T19:21:08.471Z,2.15
2023-04-20T19:23:38.057Z,2.20
2023-04-20T19:26:08.969Z,2.55
2023-04-20T19:28:41.173Z,2.47
2023-04-20T19:31:16.722Z,2.63
2023-04-20T19:33:47.039Z,2.60
2023-04-20T19:36:21.330Z,2.40
2023-04-20T19:38:52.386Z,2.13
2023-04-20T19:41:20.851Z,2.40
2023-04-20T19:43:51.930Z,2.42
2023-04-20T19:46:23.537Z,2.35
2023-04-20T19:48:52.589Z,2.50
2023-04-20T19:51:31.517Z,2.40
2023-04-20T19:54:05.336Z,2.50
2023-04-20T19:56:36.719Z,2.20
2023-04-20T19:59:17.786Z,2.30
2023-04-20T20:01:51.012Z,2.35
2023-04-20T20:04:21.578Z,2.10
2023-04-20T20:07:36.640Z,2.40
2023-04-20T20:10:09.187Z,2.30
2023-04-20T20:12:39.832Z,2.30
2023-04-20T20:15:10.797Z,2.40
2023-04-20T20:17:41.281Z,2.50
2023-04-20T20:20:19.372Z,2.10
2023-04-20T20:22:51.536Z,2.50
2023-04-20T20:25:21.486Z,2.25
2023-04-20T20:27:53.529Z,2.40
2023-04-20T20:30:25.560Z,2.28
2023-04-20T20:32:56.436Z,2.58
2023-04-20T20:35:38.888Z,2.50
2023-04-20T20:38:13.014Z,2.30
2023-04-20T20:40:44.394Z,2.50
2023-04-20T20:43:16.250Z,2.50
2023-04-20T20:45:45.624Z,2.38
2023-04-20T20:48:16.765Z,2.45
2023-04-20T20:51:23.654Z,2.28
2023-04-20T20:53:53.612Z,2.50
2023-04-20T20:56:24.383Z,2.22
2023-04-20T20:59:04.907Z,2.50
2023-04-20T21:01:56.758Z,2.28
2023-04-20T21:04:40.793Z,2.67
2023-04-20T21:07:11.466Z,2.30
2023-04-20T21:09:48.331Z,2.40
2023-04-20T21:12:19.333Z,2.25
2023-04-20T21:14:52.257Z,2.50
2023-04-20T21:17:34.329Z,2.58
2023-04-20T21:20:15.083Z,2.40
2023-04-20T21:22:44.973Z,2.50
2023-04-20T21:25:15.971Z,2.30
2023-04-20T21:27:46.276Z,2.35
2023-04-20T21:30:19.479Z,2.50
2023-04-20T21:32:49.795Z,2.58
2023-04-20T21:38:25.371Z,2.20
2023-04-20T21:41:13.767Z,2.35
2023-04-20T21:43:44.922Z,2.50
2023-04-20T21:46:19.456Z,2.42
2023-04-20T21:49:06.084Z,2.40
2023-04-20T21:51:36.971Z,2.30
2023-04-20T21:54:10.810Z,2.67
2023-04-20T21:56:43.394Z,2.50
2023-04-20T21:59:15.087Z,2.22
2023-04-20T22:01:45.134Z,2.63
2023-04-20T22:04:25.327Z,2.67
2023-04-20T22:06:57.022Z,2.60
2023-04-20T22:09:30.405Z,2.65
2023-04-20T22:12:04.196Z,2.60
2023-04-20T22:14:37.436Z,2.60
2023-04-20T22:17:13.837Z,2.70
2023-04-20T22:19:45.098Z,2.60
2023-04-20T22:22:17.415Z,2.72
2023-04-20T22:24:49.266Z,2.50
2023-04-20T22:27:25.745Z,2.80
2023-04-20T22:30:01.522Z,2.42
2023-04-20T22:32:37.608Z,2.47
2023-04-20T22:35:15.920Z,2.92
2023-04-20T22:37:47.709Z,2.60
2023-04-20T22:40:16.830Z,2.60
2023-04-20T22:42:49.018Z,2.60
2023-04-20T22:45:21.387Z,2.50
2023-04-20T22:47:52.404Z,2.60
2023-04-20T22:50:21.444Z,2.60
2023-04-20T22:52:52.949Z,2.58
2023-04-20T22:55:24.913Z,2.40
2023-04-20T22:57:55.018Z,2.73
2023-04-20T23:00:24.435Z,2.40
2023-04-20T23:02:53.203Z,2.30
2023-04-20T23:05:27.244Z,2.45
2023-04-20T23:08:04.430Z,2.70
2023-04-20T23:10:33.981Z,2.78
2023-04-20T23:13:05.801Z,2.75
2023-04-20T23:15:36.854Z,2.50
2023-04-20T23:18:06.999Z,2.60
2023-04-20T23:20:38.961Z,2.47
2023-04-20T23:23:12.450Z,2.65
2023-04-20T23:25:41.344Z,2.42
2023-04-20T23:28:15.988Z,2.47
2023-04-20T23:30:45.477Z,2.40
2023-04-20T23:33:16.023Z,2.50
2023-04-20T23:35:44.942Z,2.63
2023-04-20T23:38:17.229Z,2.63
2023-04-20T23:40:47.031Z,2.60
2023-04-20T23:43:16.463Z,2.65
2023-04-20T23:45:47.118Z,2.75
2023-04-20T23:48:16.745Z,2.60
2023-04-20T23:50:50.939Z,2.70
2023-04-20T23:53:22.936Z,2.42
2023-04-20T23:55:57.614Z,2.70
2023-04-20T23:58:32.753Z,2.72
